sensor_id;sensor_type;location;lat;lon;timestamp;P1;durP1;ratioP1;P2;durP2;ratioP2
49029;SDS011;43337;52.070;4.508;2023-04-09T00:01:25;34.53;;;17.85;;
49029;SDS011;43337;52.070;4.508;2023-04-09T00:03:51;34.33;;;16.83;;
49029;SDS011;43337;52.070;4.508;2023-04-09T00:06:18;31.27;;;16.20;;
49029;SDS011;43337;52.070;4.508;2023-04-09T00:08:43;36.13;;;17.90;;
49029;SDS011;43337;52.070;4.508;2023-04-09T00:11:09;40.67;;;18.83;;
49029;SDS011;43337;52.070;4.508;2023-04-09T00:13:34;36.47;;;18.10;;
49029;SDS011;43337;52.070;4.508;2023-04-09T00:16:00;37.53;;;18.38;;
49029;SDS011;43337;52.070;4.508;2023-04-09T00:18:25;41.95;;;18.75;;
49029;SDS011;43337;52.070;4.508;2023-04-09T00:20:51;33.95;;;17.23;;
49029;SDS011;43337;52.070;4.508;2023-04-09T00:23:16;36.85;;;18.08;;
49029;SDS011;43337;52.070;4.508;2023-04-09T00:25:43;38.22;;;18.52;;
49029;SDS011;43337;52.070;4.508;2023-04-09T00:28:08;38.95;;;18.20;;
49029;SDS011;43337;52.070;4.508;2023-04-09T00:30:34;35.15;;;18.45;;
49029;SDS011;43337;52.070;4.508;2023-04-09T00:32:59;37.25;;;17.42;;
49029;SDS011;43337;52.070;4.508;2023-04-09T00:35:26;41.78;;;20.52;;
49029;SDS011;43337;52.070;4.508;2023-04-09T00:37:52;38.92;;;19.98;;
49029;SDS011;43337;52.070;4.508;2023-04-09T00:40:17;40.05;;;18.30;;
49029;SDS011;43337;52.070;4.508;2023-04-09T00:42:44;47.35;;;20.35;;
49029;SDS011;43337;52.070;4.508;2023-04-09T00:48:10;38.08;;;20.20;;
49029;SDS011;43337;52.070;4.508;2023-04-09T00:50:36;40.50;;;19.73;;
49029;SDS011;43337;52.070;4.508;2023-04-09T00:53:03;42.10;;;19.98;;
49029;SDS011;43337;52.070;4.508;2023-04-09T00:55:30;43.75;;;20.27;;
49029;SDS011;43337;52.070;4.508;2023-04-09T00:57:57;40.83;;;19.58;;
49029;SDS011;43337;52.070;4.508;2023-04-09T01:00:22;39.55;;;19.23;;
49029;SDS011;43337;52.070;4.508;2023-04-09T01:02:49;39.63;;;18.42;;
49029;SDS011;43337;52.070;4.508;2023-04-09T01:05:16;38.72;;;18.63;;
49029;SDS011;43337;52.070;4.508;2023-04-09T01:13:17;39.45;;;19.35;;
49029;SDS011;43337;52.070;4.508;2023-04-09T01:15:51;43.03;;;19.55;;
49029;SDS011;43337;52.070;4.508;2023-04-09T01:21:14;37.97;;;18.48;;
49029;SDS011;43337;52.070;4.508;2023-04-09T01:24:26;39.40;;;17.83;;
49029;SDS011;43337;52.070;4.508;2023-04-09T01:29:22;37.27;;;17.13;;
49029;SDS011;43337;52.070;4.508;2023-04-09T01:31:49;42.67;;;20.77;;
49029;SDS011;43337;52.070;4.508;2023-04-09T01:34:18;39.42;;;18.55;;
49029;SDS011;43337;52.070;4.508;2023-04-09T01:36:46;40.45;;;18.60;;
49029;SDS011;43337;52.070;4.508;2023-04-09T01:39:15;39.65;;;18.92;;
49029;SDS011;43337;52.070;4.508;2023-04-09T01:41:40;41.53;;;20.20;;
49029;SDS011;43337;52.070;4.508;2023-04-09T01:44:07;41.00;;;19.35;;
49029;SDS011;43337;52.070;4.508;2023-04-09T01:46:34;40.20;;;19.58;;
49029;SDS011;43337;52.070;4.508;2023-04-09T01:49:01;43.95;;;20.10;;
49029;SDS011;43337;52.070;4.508;2023-04-09T01:51:28;38.72;;;18.70;;
49029;SDS011;43337;52.070;4.508;2023-04-09T01:53:55;38.00;;;18.27;;
49029;SDS011;43337;52.070;4.508;2023-04-09T01:56:22;41.58;;;18.35;;
49029;SDS011;43337;52.070;4.508;2023-04-09T01:58:47;34.47;;;17.45;;
49029;SDS011;43337;52.070;4.508;2023-04-09T02:01:19;40.42;;;18.38;;
49029;SDS011;43337;52.070;4.508;2023-04-09T02:03:59;38.38;;;18.30;;
49029;SDS011;43337;52.070;4.508;2023-04-09T02:09:29;36.08;;;17.40;;
49029;SDS011;43337;52.070;4.508;2023-04-09T02:11:57;45.15;;;18.55;;
49029;SDS011;43337;52.070;4.508;2023-04-09T02:14:24;40.95;;;19.33;;
49029;SDS011;43337;52.070;4.508;2023-04-09T02:16:51;45.10;;;20.33;;
49029;SDS011;43337;52.070;4.508;2023-04-09T02:19:18;40.90;;;19.95;;
49029;SDS011;43337;52.070;4.508;2023-04-09T02:21:44;41.88;;;20.25;;
49029;SDS011;43337;52.070;4.508;2023-04-09T02:24:10;40.67;;;19.25;;
49029;SDS011;43337;52.070;4.508;2023-04-09T02:26:35;41.17;;;20.10;;
49029;SDS011;43337;52.070;4.508;2023-04-09T02:29:01;42.38;;;19.27;;
49029;SDS011;43337;52.070;4.508;2023-04-09T02:31:26;44.13;;;19.50;;
49029;SDS011;43337;52.070;4.508;2023-04-09T02:33:51;40.50;;;19.45;;
49029;SDS011;43337;52.070;4.508;2023-04-09T02:36:18;39.60;;;20.13;;
49029;SDS011;43337;52.070;4.508;2023-04-09T02:38:43;40.70;;;19.23;;
49029;SDS011;43337;52.070;4.508;2023-04-09T02:41:09;46.63;;;20.50;;
49029;SDS011;43337;52.070;4.508;2023-04-09T02:43:35;42.75;;;19.85;;
49029;SDS011;43337;52.070;4.508;2023-04-09T02:46:01;46.55;;;20.67;;
49029;SDS011;43337;52.070;4.508;2023-04-09T02:48:28;44.30;;;20.80;;
49029;SDS011;43337;52.070;4.508;2023-04-09T02:50:55;48.65;;;22.38;;
49029;SDS011;43337;52.070;4.508;2023-04-09T02:53:20;49.33;;;22.60;;
49029;SDS011;43337;52.070;4.508;2023-04-09T02:55:46;43.17;;;22.00;;
49029;SDS011;43337;52.070;4.508;2023-04-09T02:58:11;45.17;;;21.35;;
49029;SDS011;43337;52.070;4.508;2023-04-09T03:00:37;51.63;;;21.05;;
49029;SDS011;43337;52.070;4.508;2023-04-09T03:03:03;48.65;;;21.48;;
49029;SDS011;43337;52.070;4.508;2023-04-09T03:05:29;46.88;;;21.95;;
49029;SDS011;43337;52.070;4.508;2023-04-09T03:07:55;46.95;;;20.77;;
49029;SDS011;43337;52.070;4.508;2023-04-09T03:10:21;48.42;;;21.67;;
49029;SDS011;43337;52.070;4.508;2023-04-09T03:12:46;44.35;;;20.00;;
49029;SDS011;43337;52.070;4.508;2023-04-09T03:15:12;48.70;;;21.85;;
49029;SDS011;43337;52.070;4.508;2023-04-09T03:17:38;44.08;;;20.30;;
49029;SDS011;43337;52.070;4.508;2023-04-09T03:20:04;45.45;;;21.55;;
49029;SDS011;43337;52.070;4.508;2023-04-09T03:22:34;47.45;;;21.33;;
49029;SDS011;43337;52.070;4.508;2023-04-09T03:25:04;46.58;;;19.73;;
49029;SDS011;43337;52.070;4.508;2023-04-09T03:27:30;46.45;;;21.08;;
49029;SDS011;43337;52.070;4.508;2023-04-09T03:29:56;45.50;;;20.80;;
49029;SDS011;43337;52.070;4.508;2023-04-09T03:32:24;49.20;;;22.15;;
49029;SDS011;43337;52.070;4.508;2023-04-09T03:34:50;53.50;;;22.08;;
49029;SDS011;43337;52.070;4.508;2023-04-09T03:37:15;44.33;;;21.15;;
49029;SDS011;43337;52.070;4.508;2023-04-09T03:39:42;45.05;;;20.13;;
49029;SDS011;43337;52.070;4.508;2023-04-09T03:42:07;44.47;;;21.35;;
49029;SDS011;43337;52.070;4.508;2023-04-09T03:44:33;43.72;;;20.88;;
49029;SDS011;43337;52.070;4.508;2023-04-09T03:46:58;46.80;;;20.83;;
49029;SDS011;43337;52.070;4.508;2023-04-09T03:49:23;46.08;;;19.92;;
49029;SDS011;43337;52.070;4.508;2023-04-09T03:51:49;46.80;;;20.25;;
49029;SDS011;43337;52.070;4.508;2023-04-09T03:54:14;45.63;;;21.00;;
49029;SDS011;43337;52.070;4.508;2023-04-09T03:56:40;43.72;;;19.95;;
49029;SDS011;43337;52.070;4.508;2023-04-09T03:59:05;42.22;;;19.67;;
49029;SDS011;43337;52.070;4.508;2023-04-09T04:01:31;44.25;;;20.33;;
49029;SDS011;43337;52.070;4.508;2023-04-09T04:03:57;43.58;;;20.23;;
49029;SDS011;43337;52.070;4.508;2023-04-09T04:06:22;44.53;;;19.67;;
49029;SDS011;43337;52.070;4.508;2023-04-09T04:12:00;38.83;;;18.08;;
49029;SDS011;43337;52.070;4.508;2023-04-09T04:14:27;39.95;;;18.83;;
49029;SDS011;43337;52.070;4.508;2023-04-09T04:16:52;41.45;;;19.58;;
49029;SDS011;43337;52.070;4.508;2023-04-09T04:19:17;42.38;;;19.33;;
49029;SDS011;43337;52.070;4.508;2023-04-09T04:21:43;44.30;;;19.33;;
49029;SDS011;43337;52.070;4.508;2023-04-09T04:24:09;39.17;;;19.63;;
49029;SDS011;43337;52.070;4.508;2023-04-09T04:26:35;46.00;;;19.40;;
49029;SDS011;43337;52.070;4.508;2023-04-09T04:29:01;42.88;;;20.17;;
49029;SDS011;43337;52.070;4.508;2023-04-09T04:31:26;43.88;;;20.52;;
49029;SDS011;43337;52.070;4.508;2023-04-09T04:33:53;42.70;;;20.25;;
49029;SDS011;43337;52.070;4.508;2023-04-09T04:36:18;43.65;;;20.52;;
49029;SDS011;43337;52.070;4.508;2023-04-09T04:38:43;41.33;;;18.67;;
49029;SDS011;43337;52.070;4.508;2023-04-09T04:41:09;44.17;;;20.98;;
49029;SDS011;43337;52.070;4.508;2023-04-09T04:43:35;41.97;;;20.17;;
49029;SDS011;43337;52.070;4.508;2023-04-09T04:46:01;41.45;;;19.35;;
49029;SDS011;43337;52.070;4.508;2023-04-09T04:48:27;38.65;;;18.20;;
49029;SDS011;43337;52.070;4.508;2023-04-09T04:50:54;39.80;;;18.52;;
49029;SDS011;43337;52.070;4.508;2023-04-09T04:53:21;38.83;;;17.77;;
49029;SDS011;43337;52.070;4.508;2023-04-09T04:55:46;40.38;;;19.25;;
49029;SDS011;43337;52.070;4.508;2023-04-09T04:58:11;37.05;;;18.33;;
49029;SDS011;43337;52.070;4.508;2023-04-09T05:00:37;40.35;;;17.98;;
49029;SDS011;43337;52.070;4.508;2023-04-09T05:03:02;41.25;;;19.45;;
49029;SDS011;43337;52.070;4.508;2023-04-09T05:05:27;40.50;;;19.38;;
49029;SDS011;43337;52.070;4.508;2023-04-09T05:07:53;42.92;;;20.40;;
49029;SDS011;43337;52.070;4.508;2023-04-09T05:10:18;38.35;;;17.85;;
49029;SDS011;43337;52.070;4.508;2023-04-09T05:12:44;38.58;;;19.17;;
49029;SDS011;43337;52.070;4.508;2023-04-09T05:15:09;43.00;;;20.38;;
49029;SDS011;43337;52.070;4.508;2023-04-09T05:17:35;37.58;;;18.40;;
49029;SDS011;43337;52.070;4.508;2023-04-09T05:20:00;40.92;;;19.77;;
49029;SDS011;43337;52.070;4.508;2023-04-09T05:22:25;38.45;;;18.63;;
49029;SDS011;43337;52.070;4.508;2023-04-09T05:24:51;39.55;;;19.05;;
49029;SDS011;43337;52.070;4.508;2023-04-09T05:27:17;44.90;;;18.25;;
49029;SDS011;43337;52.070;4.508;2023-04-09T05:29:43;40.42;;;19.88;;
49029;SDS011;43337;52.070;4.508;2023-04-09T05:32:09;40.28;;;18.45;;
49029;SDS011;43337;52.070;4.508;2023-04-09T05:34:34;39.10;;;19.58;;
49029;SDS011;43337;52.070;4.508;2023-04-09T05:37:01;36.75;;;17.88;;
49029;SDS011;43337;52.070;4.508;2023-04-09T05:39:26;37.72;;;18.33;;
49029;SDS011;43337;52.070;4.508;2023-04-09T05:41:51;37.38;;;17.58;;
49029;SDS011;43337;52.070;4.508;2023-04-09T05:44:17;40.22;;;18.20;;
49029;SDS011;43337;52.070;4.508;2023-04-09T05:46:43;41.20;;;19.20;;
49029;SDS011;43337;52.070;4.508;2023-04-09T05:49:08;43.60;;;19.90;;
49029;SDS011;43337;52.070;4.508;2023-04-09T05:51:34;37.55;;;18.45;;
49029;SDS011;43337;52.070;4.508;2023-04-09T05:54:01;39.10;;;19.52;;
49029;SDS011;43337;52.070;4.508;2023-04-09T05:56:27;43.42;;;19.15;;
49029;SDS011;43337;52.070;4.508;2023-04-09T05:58:52;38.80;;;18.30;;
49029;SDS011;43337;52.070;4.508;2023-04-09T06:01:18;37.70;;;18.65;;
49029;SDS011;43337;52.070;4.508;2023-04-09T06:03:44;36.50;;;18.23;;
49029;SDS011;43337;52.070;4.508;2023-04-09T06:06:09;41.38;;;19.38;;
49029;SDS011;43337;52.070;4.508;2023-04-09T06:08:34;39.95;;;18.65;;
49029;SDS011;43337;52.070;4.508;2023-04-09T06:11:00;41.42;;;19.77;;
49029;SDS011;43337;52.070;4.508;2023-04-09T06:13:26;41.00;;;19.05;;
49029;SDS011;43337;52.070;4.508;2023-04-09T06:15:51;42.33;;;18.50;;
49029;SDS011;43337;52.070;4.508;2023-04-09T06:18:16;40.85;;;19.65;;
49029;SDS011;43337;52.070;4.508;2023-04-09T06:20:42;41.53;;;18.67;;
49029;SDS011;43337;52.070;4.508;2023-04-09T06:23:07;41.78;;;19.45;;
49029;SDS011;43337;52.070;4.508;2023-04-09T06:25:34;39.42;;;18.73;;
49029;SDS011;43337;52.070;4.508;2023-04-09T06:28:00;39.35;;;18.27;;
49029;SDS011;43337;52.070;4.508;2023-04-09T06:30:25;41.28;;;19.40;;
49029;SDS011;43337;52.070;4.508;2023-04-09T06:32:51;42.45;;;19.35;;
49029;SDS011;43337;52.070;4.508;2023-04-09T06:35:16;41.13;;;19.33;;
49029;SDS011;43337;52.070;4.508;2023-04-09T06:37:42;39.63;;;18.27;;
49029;SDS011;43337;52.070;4.508;2023-04-09T06:40:07;39.33;;;17.52;;
49029;SDS011;43337;52.070;4.508;2023-04-09T06:42:33;40.30;;;18.08;;
49029;SDS011;43337;52.070;4.508;2023-04-09T06:44:58;42.03;;;18.85;;
49029;SDS011;43337;52.070;4.508;2023-04-09T06:47:24;39.55;;;18.05;;
49029;SDS011;43337;52.070;4.508;2023-04-09T06:49:49;41.70;;;18.58;;
49029;SDS011;43337;52.070;4.508;2023-04-09T06:52:18;39.97;;;17.75;;
49029;SDS011;43337;52.070;4.508;2023-04-09T06:54:43;37.03;;;17.70;;
49029;SDS011;43337;52.070;4.508;2023-04-09T06:57:10;43.28;;;18.52;;
49029;SDS011;43337;52.070;4.508;2023-04-09T06:59:35;36.22;;;17.83;;
49029;SDS011;43337;52.070;4.508;2023-04-09T07:02:00;38.88;;;18.80;;
49029;SDS011;43337;52.070;4.508;2023-04-09T07:04:26;37.50;;;17.15;;
49029;SDS011;43337;52.070;4.508;2023-04-09T07:06:51;41.03;;;18.60;;
49029;SDS011;43337;52.070;4.508;2023-04-09T07:09:18;38.50;;;17.45;;
49029;SDS011;43337;52.070;4.508;2023-04-09T07:11:44;37.33;;;17.40;;
49029;SDS011;43337;52.070;4.508;2023-04-09T07:14:10;39.55;;;18.42;;
49029;SDS011;43337;52.070;4.508;2023-04-09T07:16:36;38.92;;;18.35;;
49029;SDS011;43337;52.070;4.508;2023-04-09T07:19:01;37.65;;;17.75;;
49029;SDS011;43337;52.070;4.508;2023-04-09T07:21:27;40.65;;;18.75;;
49029;SDS011;43337;52.070;4.508;2023-04-09T07:23:52;38.97;;;18.55;;
49029;SDS011;43337;52.070;4.508;2023-04-09T07:26:18;43.42;;;19.05;;
49029;SDS011;43337;52.070;4.508;2023-04-09T07:28:43;45.42;;;19.45;;
49029;SDS011;43337;52.070;4.508;2023-04-09T07:31:09;44.33;;;19.85;;
49029;SDS011;43337;52.070;4.508;2023-04-09T07:33:35;45.97;;;19.27;;
49029;SDS011;43337;52.070;4.508;2023-04-09T07:36:01;45.17;;;20.38;;
49029;SDS011;43337;52.070;4.508;2023-04-09T07:38:27;46.33;;;20.17;;
49029;SDS011;43337;52.070;4.508;2023-04-09T07:40:55;52.38;;;21.08;;
49029;SDS011;43337;52.070;4.508;2023-04-09T07:43:21;55.85;;;23.13;;
49029;SDS011;43337;52.070;4.508;2023-04-09T07:45:49;56.83;;;23.17;;
49029;SDS011;43337;52.070;4.508;2023-04-09T07:48:17;50.75;;;21.35;;
49029;SDS011;43337;52.070;4.508;2023-04-09T07:50:43;51.83;;;21.98;;
49029;SDS011;43337;52.070;4.508;2023-04-09T07:53:12;55.35;;;22.80;;
49029;SDS011;43337;52.070;4.508;2023-04-09T07:55:38;58.50;;;22.98;;
49029;SDS011;43337;52.070;4.508;2023-04-09T07:58:03;58.15;;;22.40;;
49029;SDS011;43337;52.070;4.508;2023-04-09T08:00:29;65.95;;;25.13;;
49029;SDS011;43337;52.070;4.508;2023-04-09T08:02:55;58.97;;;24.55;;
49029;SDS011;43337;52.070;4.508;2023-04-09T08:05:21;60.40;;;25.10;;
49029;SDS011;43337;52.070;4.508;2023-04-09T08:07:47;68.65;;;26.30;;
49029;SDS011;43337;52.070;4.508;2023-04-09T08:10:12;74.22;;;25.77;;
49029;SDS011;43337;52.070;4.508;2023-04-09T08:12:40;71.60;;;26.80;;
49029;SDS011;43337;52.070;4.508;2023-04-09T08:15:06;70.35;;;26.90;;
49029;SDS011;43337;52.070;4.508;2023-04-09T08:17:32;75.35;;;27.83;;
49029;SDS011;43337;52.070;4.508;2023-04-09T08:23:19;72.85;;;27.20;;
49029;SDS011;43337;52.070;4.508;2023-04-09T08:25:45;70.38;;;26.80;;
49029;SDS011;43337;52.070;4.508;2023-04-09T08:28:10;70.68;;;26.33;;
49029;SDS011;43337;52.070;4.508;2023-04-09T08:30:35;69.68;;;26.40;;
49029;SDS011;43337;52.070;4.508;2023-04-09T08:33:01;71.38;;;27.80;;
49029;SDS011;43337;52.070;4.508;2023-04-09T08:35:26;73.25;;;28.27;;
49029;SDS011;43337;52.070;4.508;2023-04-09T08:37:54;69.53;;;27.60;;
49029;SDS011;43337;52.070;4.508;2023-04-09T08:40:20;71.90;;;28.10;;
49029;SDS011;43337;52.070;4.508;2023-04-09T08:42:46;70.80;;;27.38;;
49029;SDS011;43337;52.070;4.508;2023-04-09T08:45:20;71.30;;;27.98;;
49029;SDS011;43337;52.070;4.508;2023-04-09T08:47:46;78.07;;;29.50;;
49029;SDS011;43337;52.070;4.508;2023-04-09T08:50:14;77.97;;;29.08;;
49029;SDS011;43337;52.070;4.508;2023-04-09T08:52:39;70.57;;;27.75;;
49029;SDS011;43337;52.070;4.508;2023-04-09T08:55:05;76.35;;;30.00;;
49029;SDS011;43337;52.070;4.508;2023-04-09T08:57:36;73.85;;;29.02;;
49029;SDS011;43337;52.070;4.508;2023-04-09T09:00:02;82.60;;;30.42;;
49029;SDS011;43337;52.070;4.508;2023-04-09T09:02:28;76.05;;;29.83;;
49029;SDS011;43337;52.070;4.508;2023-04-09T09:04:55;79.70;;;28.80;;
49029;SDS011;43337;52.070;4.508;2023-04-09T09:07:24;76.85;;;30.10;;
49029;SDS011;43337;52.070;4.508;2023-04-09T09:09:55;78.25;;;30.85;;
49029;SDS011;43337;52.070;4.508;2023-04-09T09:14:58;70.38;;;29.35;;
49029;SDS011;43337;52.070;4.508;2023-04-09T09:17:23;68.25;;;28.25;;
49029;SDS011;43337;52.070;4.508;2023-04-09T09:19:49;69.18;;;28.92;;
49029;SDS011;43337;52.070;4.508;2023-04-09T09:22:14;73.10;;;29.65;;
49029;SDS011;43337;52.070;4.508;2023-04-09T09:24:47;66.15;;;28.65;;
49029;SDS011;43337;52.070;4.508;2023-04-09T09:27:56;67.95;;;28.40;;
49029;SDS011;43337;52.070;4.508;2023-04-09T09:30:04;66.60;;;27.10;;
49029;SDS011;43337;52.070;4.508;2023-04-09T09:32:34;67.63;;;27.15;;
49029;SDS011;43337;52.070;4.508;2023-04-09T09:35:01;67.13;;;27.58;;
49029;SDS011;43337;52.070;4.508;2023-04-09T09:37:28;63.30;;;27.52;;
49029;SDS011;43337;52.070;4.508;2023-04-09T09:39:56;65.47;;;29.00;;
49029;SDS011;43337;52.070;4.508;2023-04-09T09:42:22;69.43;;;29.02;;
49029;SDS011;43337;52.070;4.508;2023-04-09T09:44:47;64.00;;;27.55;;
49029;SDS011;43337;52.070;4.508;2023-04-09T09:47:14;67.97;;;28.73;;
49029;SDS011;43337;52.070;4.508;2023-04-09T09:49:41;67.20;;;27.45;;
49029;SDS011;43337;52.070;4.508;2023-04-09T09:52:07;69.05;;;28.85;;
49029;SDS011;43337;52.070;4.508;2023-04-09T09:54:39;68.88;;;29.40;;
49029;SDS011;43337;52.070;4.508;2023-04-09T09:57:09;65.17;;;28.07;;
49029;SDS011;43337;52.070;4.508;2023-04-09T10:02:47;66.07;;;27.00;;
49029;SDS011;43337;52.070;4.508;2023-04-09T10:05:21;65.95;;;27.05;;
49029;SDS011;43337;52.070;4.508;2023-04-09T10:07:50;68.97;;;27.13;;
49029;SDS011;43337;52.070;4.508;2023-04-09T10:10:18;61.10;;;25.05;;
49029;SDS011;43337;52.070;4.508;2023-04-09T10:12:44;64.32;;;26.52;;
49029;SDS011;43337;52.070;4.508;2023-04-09T10:15:09;64.13;;;28.17;;
49029;SDS011;43337;52.070;4.508;2023-04-09T10:17:36;63.72;;;27.15;;
49029;SDS011;43337;52.070;4.508;2023-04-09T10:20:06;61.47;;;26.98;;
49029;SDS011;43337;52.070;4.508;2023-04-09T10:22:36;60.45;;;25.10;;
49029;SDS011;43337;52.070;4.508;2023-04-09T10:25:04;59.85;;;25.30;;
49029;SDS011;43337;52.070;4.508;2023-04-09T10:27:42;66.47;;;27.65;;
49029;SDS011;43337;52.070;4.508;2023-04-09T10:30:21;63.35;;;25.52;;
49029;SDS011;43337;52.070;4.508;2023-04-09T10:32:55;60.42;;;25.08;;
49029;SDS011;43337;52.070;4.508;2023-04-09T10:35:33;62.33;;;26.70;;
49029;SDS011;43337;52.070;4.508;2023-04-09T10:37:58;61.30;;;25.58;;
49029;SDS011;43337;52.070;4.508;2023-04-09T10:40:24;57.03;;;25.73;;
49029;SDS011;43337;52.070;4.508;2023-04-09T10:42:52;64.43;;;26.83;;
49029;SDS011;43337;52.070;4.508;2023-04-09T10:45:20;63.22;;;25.50;;
49029;SDS011;43337;52.070;4.508;2023-04-09T10:47:47;56.85;;;24.60;;
49029;SDS011;43337;52.070;4.508;2023-04-09T10:52:51;58.15;;;26.05;;
49029;SDS011;43337;52.070;4.508;2023-04-09T10:55:34;54.53;;;24.08;;
49029;SDS011;43337;52.070;4.508;2023-04-09T10:58:10;61.45;;;25.35;;
49029;SDS011;43337;52.070;4.508;2023-04-09T11:00:37;55.38;;;24.17;;
49029;SDS011;43337;52.070;4.508;2023-04-09T11:03:23;61.55;;;25.42;;
49029;SDS011;43337;52.070;4.508;2023-04-09T11:06:03;57.75;;;25.05;;
49029;SDS011;43337;52.070;4.508;2023-04-09T11:08:31;56.92;;;26.38;;
49029;SDS011;43337;52.070;4.508;2023-04-09T11:10:57;57.72;;;25.60;;
49029;SDS011;43337;52.070;4.508;2023-04-09T11:13:25;59.20;;;26.08;;
49029;SDS011;43337;52.070;4.508;2023-04-09T11:15:50;56.03;;;25.48;;
49029;SDS011;43337;52.070;4.508;2023-04-09T11:18:20;56.45;;;25.63;;
49029;SDS011;43337;52.070;4.508;2023-04-09T11:20:47;53.08;;;24.20;;
49029;SDS011;43337;52.070;4.508;2023-04-09T11:23:14;48.40;;;23.33;;
49029;SDS011;43337;52.070;4.508;2023-04-09T11:25:47;52.72;;;24.63;;
49029;SDS011;43337;52.070;4.508;2023-04-09T11:28:14;47.85;;;22.83;;
49029;SDS011;43337;52.070;4.508;2023-04-09T11:30:40;49.78;;;23.75;;
49029;SDS011;43337;52.070;4.508;2023-04-09T11:33:06;50.65;;;23.08;;
49029;SDS011;43337;52.070;4.508;2023-04-09T11:35:33;47.67;;;23.35;;
49029;SDS011;43337;52.070;4.508;2023-04-09T11:38:06;46.47;;;23.00;;
49029;SDS011;43337;52.070;4.508;2023-04-09T11:40:32;50.00;;;24.08;;
49029;SDS011;43337;52.070;4.508;2023-04-09T11:42:58;45.42;;;23.35;;
49029;SDS011;43337;52.070;4.508;2023-04-09T11:45:26;46.17;;;23.25;;
49029;SDS011;43337;52.070;4.508;2023-04-09T11:47:53;44.58;;;22.88;;
49029;SDS011;43337;52.070;4.508;2023-04-09T11:50:19;50.28;;;24.63;;
49029;SDS011;43337;52.070;4.508;2023-04-09T11:52:46;48.63;;;23.38;;
49029;SDS011;43337;52.070;4.508;2023-04-09T11:55:22;45.47;;;22.95;;
49029;SDS011;43337;52.070;4.508;2023-04-09T11:57:51;46.15;;;22.67;;
49029;SDS011;43337;52.070;4.508;2023-04-09T12:00:25;43.33;;;22.08;;
49029;SDS011;43337;52.070;4.508;2023-04-09T12:02:57;43.28;;;22.23;;
49029;SDS011;43337;52.070;4.508;2023-04-09T12:05:29;44.83;;;22.50;;
49029;SDS011;43337;52.070;4.508;2023-04-09T12:07:57;45.42;;;24.33;;
49029;SDS011;43337;52.070;4.508;2023-04-09T12:10:28;45.42;;;23.17;;
49029;SDS011;43337;52.070;4.508;2023-04-09T12:12:59;43.10;;;22.83;;
49029;SDS011;43337;52.070;4.508;2023-04-09T12:15:32;45.67;;;23.55;;
49029;SDS011;43337;52.070;4.508;2023-04-09T12:18:01;45.15;;;23.58;;
49029;SDS011;43337;52.070;4.508;2023-04-09T12:20:40;45.55;;;22.30;;
49029;SDS011;43337;52.070;4.508;2023-04-09T12:23:11;42.78;;;21.17;;
49029;SDS011;43337;52.070;4.508;2023-04-09T12:25:37;40.95;;;22.75;;
49029;SDS011;43337;52.070;4.508;2023-04-09T12:28:05;37.95;;;20.77;;
49029;SDS011;43337;52.070;4.508;2023-04-09T12:30:32;42.33;;;23.70;;
49029;SDS011;43337;52.070;4.508;2023-04-09T12:32:58;41.38;;;23.63;;
49029;SDS011;43337;52.070;4.508;2023-04-09T12:35:25;43.55;;;23.27;;
49029;SDS011;43337;52.070;4.508;2023-04-09T12:37:50;45.28;;;22.25;;
49029;SDS011;43337;52.070;4.508;2023-04-09T12:40:16;43.50;;;22.23;;
49029;SDS011;43337;52.070;4.508;2023-04-09T12:42:44;41.33;;;22.17;;
49029;SDS011;43337;52.070;4.508;2023-04-09T12:45:14;42.15;;;22.75;;
49029;SDS011;43337;52.070;4.508;2023-04-09T12:47:41;40.10;;;23.10;;
49029;SDS011;43337;52.070;4.508;2023-04-09T12:50:08;39.78;;;21.13;;
49029;SDS011;43337;52.070;4.508;2023-04-09T12:52:34;34.47;;;19.67;;
49029;SDS011;43337;52.070;4.508;2023-04-09T12:55:00;34.80;;;20.17;;
49029;SDS011;43337;52.070;4.508;2023-04-09T12:57:26;39.40;;;20.77;;
49029;SDS011;43337;52.070;4.508;2023-04-09T12:59:52;38.70;;;21.50;;
49029;SDS011;43337;52.070;4.508;2023-04-09T13:02:18;40.10;;;21.42;;
49029;SDS011;43337;52.070;4.508;2023-04-09T13:04:45;38.78;;;21.80;;
49029;SDS011;43337;52.070;4.508;2023-04-09T13:07:11;32.78;;;19.15;;
49029;SDS011;43337;52.070;4.508;2023-04-09T13:09:39;39.90;;;20.25;;
49029;SDS011;43337;52.070;4.508;2023-04-09T13:12:05;34.92;;;18.13;;
49029;SDS011;43337;52.070;4.508;2023-04-09T13:14:30;35.35;;;18.67;;
49029;SDS011;43337;52.070;4.508;2023-04-09T13:16:56;35.72;;;19.08;;
49029;SDS011;43337;52.070;4.508;2023-04-09T13:19:21;33.28;;;19.58;;
49029;SDS011;43337;52.070;4.508;2023-04-09T13:21:47;33.13;;;18.10;;
49029;SDS011;43337;52.070;4.508;2023-04-09T13:24:12;32.47;;;17.27;;
49029;SDS011;43337;52.070;4.508;2023-04-09T13:26:37;30.35;;;16.98;;
49029;SDS011;43337;52.070;4.508;2023-04-09T13:29:03;27.45;;;15.82;;
49029;SDS011;43337;52.070;4.508;2023-04-09T13:31:28;35.17;;;18.52;;
49029;SDS011;43337;52.070;4.508;2023-04-09T13:33:54;31.67;;;16.85;;
49029;SDS011;43337;52.070;4.508;2023-04-09T13:36:19;30.92;;;17.13;;
49029;SDS011;43337;52.070;4.508;2023-04-09T13:38:44;30.52;;;17.00;;
49029;SDS011;43337;52.070;4.508;2023-04-09T13:41:10;31.35;;;17.35;;
49029;SDS011;43337;52.070;4.508;2023-04-09T13:43:35;28.95;;;16.65;;
49029;SDS011;43337;52.070;4.508;2023-04-09T13:46:01;27.80;;;16.13;;
49029;SDS011;43337;52.070;4.508;2023-04-09T13:48:28;24.67;;;15.45;;
49029;SDS011;43337;52.070;4.508;2023-04-09T13:50:53;27.75;;;16.20;;
49029;SDS011;43337;52.070;4.508;2023-04-09T13:53:18;26.00;;;14.93;;
49029;SDS011;43337;52.070;4.508;2023-04-09T13:55:44;26.30;;;16.73;;
49029;SDS011;43337;52.070;4.508;2023-04-09T13:58:10;32.33;;;16.88;;
49029;SDS011;43337;52.070;4.508;2023-04-09T14:00:36;29.33;;;16.08;;
49029;SDS011;43337;52.070;4.508;2023-04-09T14:03:02;26.90;;;15.82;;
49029;SDS011;43337;52.070;4.508;2023-04-09T14:05:28;31.50;;;16.85;;
49029;SDS011;43337;52.070;4.508;2023-04-09T14:07:54;26.95;;;15.52;;
49029;SDS011;43337;52.070;4.508;2023-04-09T14:10:20;26.08;;;15.50;;
49029;SDS011;43337;52.070;4.508;2023-04-09T14:12:45;31.17;;;17.48;;
49029;SDS011;43337;52.070;4.508;2023-04-09T14:15:10;27.98;;;16.55;;
49029;SDS011;43337;52.070;4.508;2023-04-09T14:17:36;26.92;;;15.23;;
49029;SDS011;43337;52.070;4.508;2023-04-09T14:20:02;23.15;;;14.55;;
49029;SDS011;43337;52.070;4.508;2023-04-09T14:22:28;23.17;;;13.93;;
49029;SDS011;43337;52.070;4.508;2023-04-09T14:24:53;23.38;;;13.07;;
49029;SDS011;43337;52.070;4.508;2023-04-09T14:27:19;20.98;;;12.65;;
49029;SDS011;43337;52.070;4.508;2023-04-09T14:29:44;22.75;;;13.95;;
49029;SDS011;43337;52.070;4.508;2023-04-09T14:32:10;20.35;;;12.70;;
49029;SDS011;43337;52.070;4.508;2023-04-09T14:34:35;21.73;;;12.48;;
49029;SDS011;43337;52.070;4.508;2023-04-09T14:37:01;21.25;;;12.25;;
49029;SDS011;43337;52.070;4.508;2023-04-09T14:39:26;22.75;;;12.57;;
49029;SDS011;43337;52.070;4.508;2023-04-09T14:41:52;22.65;;;11.75;;
49029;SDS011;43337;52.070;4.508;2023-04-09T14:44:18;20.05;;;11.63;;
49029;SDS011;43337;52.070;4.508;2023-04-09T14:46:44;18.30;;;11.80;;
49029;SDS011;43337;52.070;4.508;2023-04-09T14:49:09;21.33;;;12.68;;
49029;SDS011;43337;52.070;4.508;2023-04-09T14:51:34;20.30;;;12.20;;